Platzwetter & Webcam am Flugplatz Wels

Flugwetter Linz LOWL

[Quelle: ADDS]
METAR
LOWL 240050Z AUTO 05002KT 9999 NCD 12/10 Q1018 =
TAF
LOWL 232315Z 2400/2424 VRB02KT CAVOK TX28/2414Z TN11/2404Z TEMPO 2400/2409 08005KT PROB30 TEMPO 2412/2424 27007KT 9999 FEW050CB =

Flugwetter Salzburg LOWS

[Quelle: ADDS]
METAR
LOWS 240050Z AUTO 14005KT 9999 NCD 15/13 Q1018 =
TAF
LOWS 232315Z 2400/2424 15005KT CAVOK TX27/2412Z TN13/2403Z BECMG 2408/2410 32007KT 9999 FEW060 TEMPO 2413/2416 FEW060CB BECMG 2416/2418 15006KT CAVOK =

Webcam - letzten 24 Stunden

  • 0
  • 1
  • 2
  • 3
  • 4
  • 5
  • 6
  • 7
  • 8
  • 9
  • 10
  • 11
  • 12
  • 13
  • 14
  • 15
  • 16
  • 17
  • 18
  • 19
  • 20
  • 21
  • 22
  • 23

    JU 52 Nostalgie-Rundflüge - hier am Flugplatz Wels!

    Tickets, Termine und Infos, hier am Flugplatz Wels. Tickethotline +43 7242 26499 0

    Pilot für einen Tag - Erfülle Dir den Traum vom Fliegen!

    Werde einen Tag lang Pilot bei und mit dem Fliegerclub Weiße Möwe in Wels!

    Vote für das Konzertspektakel in Wels!

    8 Städte – 1 Spektakel
    Du entscheidest!